Terminal Aerodrome Forecast
Issued by NWS

Home | Current Version | Previous Version | Text Only | Print | Product List | Glossary On
Versions: 1 2 3 4 5 6 7 8 9 10 11 12 13 14 15
000
FTUS45 KGJT 192324
TAFTEX
TAF
KTEX 192324Z 2000/2024 28006KT P6SM VCSH SCT040 BKN070
      TEMPO 2000/2003 VRB15G25KT -SHRA BKN040
     FM200300 13005KT P6SM SCT070 BKN120
     FM201600 28005KT P6SM FEW100 SCT250=

USA.gov is the U.S. government's official web portal to all federal, state and local government web resources and services.